createdAt,value
2023-02-06T00:00:55.738Z,102432.59
2023-02-06T00:03:22.508Z,102424.91
2023-02-06T00:05:56.552Z,102428.38
2023-02-06T00:08:24.878Z,102438.59
2023-02-06T00:10:51.660Z,102433.78
2023-02-06T00:13:18.282Z,102418.66
2023-02-06T00:15:45.056Z,102439.41
2023-02-06T00:18:11.940Z,102443.03
2023-02-06T00:20:41.941Z,102444.59
2023-02-06T00:23:08.680Z,102432.84
2023-02-06T00:25:37.117Z,102432.28
2023-02-06T00:28:04.251Z,102448.19
2023-02-06T00:30:30.970Z,102465.59
2023-02-06T00:32:57.691Z,102449.88
2023-02-06T00:35:24.447Z,102467.97
2023-02-06T00:37:51.245Z,102472.72
2023-02-06T00:40:18.952Z,102467.63
2023-02-06T00:42:47.026Z,102462.28
2023-02-06T00:45:14.059Z,102468.28
2023-02-06T00:47:40.712Z,102485.66
2023-02-06T00:50:07.889Z,102473.00
2023-02-06T00:52:34.543Z,102478.47
2023-02-06T00:55:01.230Z,102482.44
2023-02-06T00:57:27.898Z,102479.81
2023-02-06T01:00:06.487Z,102482.72
2023-02-06T01:02:33.228Z,102449.63
2023-02-06T01:04:59.937Z,102462.25
2023-02-06T01:07:26.784Z,102477.16
2023-02-06T01:09:53.431Z,102466.06
2023-02-06T01:12:20.913Z,102464.97
2023-02-06T01:14:47.687Z,102477.56
2023-02-06T01:17:15.822Z,102478.31
2023-02-06T01:19:42.468Z,102463.94
2023-02-06T01:22:09.121Z,102470.03
2023-02-06T01:24:36.589Z,102471.59
2023-02-06T01:27:03.425Z,102471.09
2023-02-06T01:29:30.110Z,102472.56
2023-02-06T01:31:56.751Z,102463.84
2023-02-06T01:34:24.848Z,102454.69
2023-02-06T01:36:51.574Z,102464.63
2023-02-06T01:39:28.074Z,102468.50
2023-02-06T01:41:54.861Z,102453.66
2023-02-06T01:44:23.347Z,102449.59
2023-02-06T01:46:51.540Z,102477.56
2023-02-06T01:49:21.630Z,102468.59
2023-02-06T01:51:51.481Z,102464.47
2023-02-06T01:54:18.433Z,102473.06
2023-02-06T01:56:54.323Z,102478.06
2023-02-06T01:59:21.835Z,102485.38
2023-02-06T02:01:48.707Z,102482.81
2023-02-06T02:04:19.027Z,102489.00
2023-02-06T02:06:52.690Z,102491.06
2023-02-06T02:09:20.344Z,102468.50
2023-02-06T02:11:47.004Z,102470.31
2023-02-06T02:14:15.636Z,102478.38
2023-02-06T02:16:52.400Z,102477.72
2023-02-06T02:20:03.108Z,102484.81
2023-02-06T02:22:44.183Z,102475.56
2023-02-06T02:25:32.061Z,102488.84
2023-02-06T02:28:22.299Z,102477.97
2023-02-06T02:31:20.518Z,102476.94
2023-02-06T02:34:20.708Z,102485.81
2023-02-06T02:36:52.396Z,102488.94
2023-02-06T02:39:27.283Z,102493.09
2023-02-06T02:41:59.855Z,102496.22
2023-02-06T02:44:34.019Z,102493.72
2023-02-06T02:47:03.800Z,102490.38
2023-02-06T02:49:35.342Z,102488.63
2023-02-06T02:52:04.348Z,102484.50
2023-02-06T02:54:31.094Z,102485.44
2023-02-06T02:57:02.668Z,102510.19
2023-02-06T02:59:35.748Z,102503.31
2023-02-06T03:02:06.055Z,102510.53
2023-02-06T03:04:39.717Z,102514.53
2023-02-06T03:07:15.703Z,102507.13
2023-02-06T03:09:52.536Z,102504.03
2023-02-06T03:12:24.218Z,102515.53
2023-02-06T03:14:55.604Z,102506.53
2023-02-06T03:17:31.647Z,102521.97
2023-02-06T03:20:05.026Z,102509.31
2023-02-06T03:22:35.710Z,102514.44
2023-02-06T03:25:04.418Z,102521.31
2023-02-06T03:27:32.586Z,102519.94
2023-02-06T03:30:03.260Z,102521.09
2023-02-06T03:32:32.808Z,102498.50
2023-02-06T03:35:01.429Z,102520.81
2023-02-06T03:37:34.694Z,102506.41
2023-02-06T03:40:05.900Z,102490.03
2023-02-06T03:42:36.311Z,102498.81
2023-02-06T03:45:06.698Z,102496.72
2023-02-06T03:47:35.537Z,102497.88
2023-02-06T03:50:02.349Z,102509.44
2023-02-06T03:52:35.791Z,102513.34
2023-02-06T03:55:16.609Z,102507.88
2023-02-06T03:57:46.506Z,102485.22
2023-02-06T04:00:14.437Z,102513.53
2023-02-06T04:02:42.313Z,102503.41
2023-02-06T04:05:09.229Z,102501.72
2023-02-06T04:07:36.129Z,102498.81
2023-02-06T04:10:04.804Z,102511.06
2023-02-06T04:12:35.486Z,102499.72
2023-02-06T04:15:02.144Z,102510.97
2023-02-06T04:17:46.273Z,102517.53
2023-02-06T04:20:15.611Z,102508.28
2023-02-06T04:22:42.334Z,102501.00
2023-02-06T04:25:10.453Z,102497.41
2023-02-06T04:27:37.995Z,102500.72
2023-02-06T04:30:11.706Z,102494.44
2023-02-06T04:32:38.436Z,102483.44
2023-02-06T04:35:05.774Z,102493.00
2023-02-06T04:37:32.480Z,102478.97
2023-02-06T04:39:59.191Z,102511.72
2023-02-06T04:42:27.410Z,102496.53
2023-02-06T04:44:54.127Z,102502.22
2023-02-06T04:47:20.780Z,102493.53
2023-02-06T04:49:47.484Z,102519.22
2023-02-06T04:52:14.109Z,102514.94
2023-02-06T04:54:40.767Z,102507.94
2023-02-06T04:57:07.422Z,102516.28
2023-02-06T04:59:35.452Z,102495.50
2023-02-06T05:02:02.106Z,102518.03
2023-02-06T05:04:28.718Z,102517.00
2023-02-06T05:06:55.344Z,102506.03
2023-02-06T05:09:22.036Z,102517.66
2023-02-06T05:11:48.675Z,102506.84
2023-02-06T05:14:15.272Z,102533.72
2023-02-06T05:16:43.296Z,102526.78
2023-02-06T05:19:10.030Z,102522.72
2023-02-06T05:21:36.620Z,102544.53
2023-02-06T05:24:03.578Z,102538.09
2023-02-06T05:26:30.208Z,102545.53
2023-02-06T05:28:56.888Z,102547.75
2023-02-06T05:31:26.684Z,102543.13
2023-02-06T05:33:54.958Z,102559.94
2023-02-06T05:36:22.838Z,102556.53
2023-02-06T05:38:50.375Z,102565.47
2023-02-06T05:41:17.321Z,102571.78
2023-02-06T05:43:44.263Z,102563.75
2023-02-06T05:46:11.035Z,102573.72
2023-02-06T05:48:37.770Z,102566.00
2023-02-06T05:51:06.118Z,102568.47
2023-02-06T05:53:32.840Z,102570.09
2023-02-06T05:55:59.516Z,102559.59
2023-02-06T05:58:26.226Z,102558.97
2023-02-06T06:00:52.927Z,102551.00
2023-02-06T06:03:19.593Z,102543.38
2023-02-06T06:05:46.278Z,102566.50
2023-02-06T06:08:14.375Z,102568.41
2023-02-06T06:10:41.010Z,102553.50
2023-02-06T06:13:07.726Z,102548.34
2023-02-06T06:15:34.797Z,102570.91
2023-02-06T06:18:01.629Z,102576.91
2023-02-06T06:20:28.296Z,102575.94
2023-02-06T06:22:54.975Z,102568.25
2023-02-06T06:25:23.045Z,102570.38
2023-02-06T06:27:49.705Z,102574.84
2023-02-06T06:30:16.830Z,102572.22
2023-02-06T06:32:43.520Z,102568.25
2023-02-06T06:35:10.138Z,102575.69
2023-02-06T06:37:36.989Z,102566.41
2023-02-06T06:40:04.152Z,102567.31
2023-02-06T06:42:32.209Z,102571.59
2023-02-06T06:44:58.912Z,102565.69
2023-02-06T06:47:25.623Z,102546.88
2023-02-06T06:49:52.274Z,102574.09
2023-02-06T06:52:25.069Z,102548.44
2023-02-06T06:54:52.765Z,102552.50
2023-02-06T06:57:19.995Z,102554.53
2023-02-06T06:59:48.281Z,102565.56
2023-02-06T07:02:15.295Z,102547.59
2023-02-06T07:04:42.225Z,102552.78
2023-02-06T07:07:09.296Z,102575.47
2023-02-06T07:09:36.001Z,102569.94
2023-02-06T07:12:03.058Z,102567.97
2023-02-06T07:14:29.740Z,102568.41
2023-02-06T07:16:57.819Z,102578.72
2023-02-06T07:19:24.599Z,102561.97
2023-02-06T07:21:51.345Z,102575.06
2023-02-06T07:24:18.259Z,102582.72
2023-02-06T07:26:48.015Z,102573.53
2023-02-06T07:29:14.774Z,102558.09
2023-02-06T07:31:41.563Z,102572.28
2023-02-06T07:34:10.068Z,102575.84
2023-02-06T07:36:36.788Z,102577.72
2023-02-06T07:39:04.130Z,102558.97
2023-02-06T07:41:30.979Z,102568.28
2023-02-06T07:43:57.716Z,102571.88
2023-02-06T07:46:24.575Z,102574.34
2023-02-06T07:48:51.497Z,102563.38
2023-02-06T07:51:19.675Z,102580.66
2023-02-06T07:53:46.351Z,102566.53
2023-02-06T07:56:15.235Z,102561.88
2023-02-06T07:58:42.557Z,102573.53
2023-02-06T08:01:10.155Z,102577.47
2023-02-06T08:03:37.379Z,102570.34
2023-02-06T08:06:24.560Z,102576.72
2023-02-06T08:08:51.877Z,102573.31
2023-02-06T08:11:21.097Z,102565.41
2023-02-06T08:13:48.395Z,102569.03
2023-02-06T08:16:17.181Z,102571.72
2023-02-06T08:18:43.937Z,102574.47
2023-02-06T08:21:12.424Z,102568.34
2023-02-06T08:23:53.346Z,102570.28
2023-02-06T08:26:20.041Z,102567.66
2023-02-06T08:28:48.831Z,102571.91
2023-02-06T08:31:17.758Z,102568.38
2023-02-06T08:33:45.028Z,102566.72
2023-02-06T08:36:13.085Z,102573.69
2023-02-06T08:38:41.344Z,102580.22
2023-02-06T08:41:18.274Z,102581.28
2023-02-06T08:43:45.583Z,102583.31
2023-02-06T08:46:12.434Z,102581.75
2023-02-06T08:48:39.133Z,102573.16
2023-02-06T08:51:07.730Z,102576.63
2023-02-06T08:53:34.755Z,102578.59
2023-02-06T08:56:05.607Z,102575.25
2023-02-06T08:58:32.838Z,102580.69
2023-02-06T09:01:05.232Z,102577.84
2023-02-06T09:03:31.871Z,102559.91
2023-02-06T09:06:09.575Z,102546.72
2023-02-06T09:08:37.654Z,102553.06
2023-02-06T09:11:09.940Z,102553.09
2023-02-06T09:13:36.786Z,102553.41
2023-02-06T09:16:04.008Z,102560.50
2023-02-06T09:18:30.668Z,102565.84
2023-02-06T09:21:09.175Z,102557.91
2023-02-06T09:23:35.837Z,102556.31
2023-02-06T09:26:02.525Z,102548.34
2023-02-06T09:28:30.885Z,102555.31
2023-02-06T09:30:57.566Z,102556.47
2023-02-06T09:33:24.437Z,102568.06
2023-02-06T09:36:12.156Z,102536.56
2023-02-06T09:38:42.411Z,102564.06
2023-02-06T09:41:15.349Z,102557.91
2023-02-06T09:43:49.916Z,102550.94
2023-02-06T09:46:19.579Z,102554.66
2023-02-06T09:48:46.090Z,102552.84
2023-02-06T09:51:25.899Z,102555.44
2023-02-06T09:54:01.323Z,102557.31
2023-02-06T09:56:36.387Z,102552.81
2023-02-06T09:59:13.166Z,102547.50
2023-02-06T10:02:00.782Z,102538.31
2023-02-06T10:04:42.737Z,102544.56
2023-02-06T10:07:22.246Z,102538.38
2023-02-06T10:09:54.149Z,102550.81
2023-02-06T10:12:26.773Z,102550.09
2023-02-06T10:15:00.749Z,102538.72
2023-02-06T10:17:39.957Z,102533.25
2023-02-06T10:20:13.178Z,102529.56
2023-02-06T10:22:45.386Z,102544.59
2023-02-06T10:25:20.058Z,102542.06
2023-02-06T10:27:52.696Z,102526.91
2023-02-06T10:30:34.236Z,102526.81
2023-02-06T10:33:14.381Z,102531.34
2023-02-06T10:35:56.434Z,102518.00
2023-02-06T10:38:46.782Z,102518.34
2023-02-06T10:41:27.074Z,102523.22
2023-02-06T10:44:04.160Z,102526.69
2023-02-06T10:46:44.659Z,102507.09
2023-02-06T10:49:19.081Z,102496.50
2023-02-06T10:51:48.593Z,102509.72
2023-02-06T10:54:19.058Z,102503.50
2023-02-06T10:56:47.665Z,102505.44
2023-02-06T10:59:21.969Z,102511.44
2023-02-06T11:01:55.725Z,102505.94
2023-02-06T11:04:29.459Z,102487.00
2023-02-06T11:07:00.915Z,102494.69
2023-02-06T11:09:27.975Z,102480.56
2023-02-06T11:11:57.164Z,102470.13
2023-02-06T11:14:27.699Z,102480.31
2023-02-06T11:16:59.455Z,102478.38
2023-02-06T11:19:28.754Z,102462.50
2023-02-06T11:22:07.375Z,102458.94
2023-02-06T11:24:35.178Z,102459.00
2023-02-06T11:27:11.442Z,102458.22
2023-02-06T11:29:45.239Z,102463.47
2023-02-06T11:32:35.091Z,102422.41
2023-02-06T11:35:06.140Z,102444.56
2023-02-06T11:37:35.764Z,102453.47
2023-02-06T11:40:22.951Z,102445.34
2023-02-06T11:42:52.003Z,102439.22
2023-02-06T11:45:25.216Z,102434.16
2023-02-06T11:47:53.690Z,102427.56
2023-02-06T11:50:25.109Z,102425.06
2023-02-06T11:52:59.248Z,102417.97
2023-02-06T11:55:28.457Z,102420.88
2023-02-06T11:58:04.362Z,102405.72
2023-02-06T12:00:31.184Z,102412.03
2023-02-06T12:02:59.351Z,102408.41
2023-02-06T12:05:29.070Z,102405.00
2023-02-06T12:07:57.746Z,102394.41
2023-02-06T12:10:26.048Z,102389.97
2023-02-06T12:12:57.850Z,102380.16
2023-02-06T12:15:45.611Z,102380.97
2023-02-06T12:18:18.619Z,102361.19
2023-02-06T12:20:50.047Z,102378.13
2023-02-06T12:23:22.188Z,102380.84
2023-02-06T12:25:52.875Z,102371.16
2023-02-06T12:28:25.037Z,102348.00
2023-02-06T12:30:55.366Z,102358.72
2023-02-06T12:33:28.103Z,102343.44
2023-02-06T12:36:00.252Z,102352.44
2023-02-06T12:38:39.570Z,102339.03
2023-02-06T12:41:20.104Z,102338.31
2023-02-06T12:43:53.631Z,102333.00
2023-02-06T12:46:27.946Z,102338.19
2023-02-06T12:49:07.842Z,102331.03
2023-02-06T12:51:40.440Z,102319.50
2023-02-06T12:54:15.746Z,102320.47
2023-02-06T12:56:47.459Z,102307.97
2023-02-06T12:59:55.573Z,102310.59
2023-02-06T13:02:41.816Z,102314.13
2023-02-06T13:05:20.296Z,102308.84
2023-02-06T13:07:50.039Z,102298.19
2023-02-06T13:10:20.267Z,102303.53
2023-02-06T13:12:53.683Z,102299.09
2023-02-06T13:15:22.649Z,102299.97
2023-02-06T13:17:49.351Z,102299.09
2023-02-06T13:20:20.074Z,102307.06
2023-02-06T13:22:48.906Z,102299.84
2023-02-06T13:25:52.180Z,102304.38
2023-02-06T13:28:42.712Z,102307.00
2023-02-06T13:31:26.179Z,102300.78
2023-02-06T13:33:58.074Z,102295.38
2023-02-06T13:36:42.005Z,102303.53
2023-02-06T13:39:23.637Z,102302.66
2023-02-06T13:41:51.161Z,102286.59
2023-02-06T13:44:25.642Z,102296.41
2023-02-06T13:47:26.825Z,102291.06
2023-02-06T13:50:24.129Z,102291.94
2023-02-06T13:53:05.497Z,102279.44
2023-02-06T13:55:44.454Z,102283.03
2023-02-06T13:58:28.511Z,102283.03
2023-02-06T14:00:57.058Z,102283.03
2023-02-06T14:03:29.203Z,102288.38
2023-02-06T14:06:07.326Z,102286.59
2023-02-06T14:08:46.749Z,102266.06
2023-02-06T14:11:29.977Z,102275.88
2023-02-06T14:14:27.096Z,102269.63
2023-02-06T14:17:03.405Z,102265.16
2023-02-06T14:19:38.765Z,102252.66
2023-02-06T14:22:18.496Z,102269.63
2023-02-06T14:25:01.041Z,102280.34
2023-02-06T14:27:37.338Z,102264.25
2023-02-06T14:30:16.353Z,102276.75
2023-02-06T14:32:50.207Z,102273.22
2023-02-06T14:35:31.523Z,102256.25
2023-02-06T14:38:21.342Z,102259.78
2023-02-06T14:40:53.358Z,102257.13
2023-02-06T14:43:24.533Z,102262.47
2023-02-06T14:46:06.468Z,102266.00
2023-02-06T14:48:39.977Z,102243.69
2023-02-06T14:51:09.052Z,102257.97
2023-02-06T14:53:37.365Z,102250.88
2023-02-06T14:56:16.312Z,102255.28
2023-02-06T14:58:44.176Z,102262.47
2023-02-06T15:01:19.678Z,102257.09
2023-02-06T15:03:48.060Z,102257.09
2023-02-06T15:06:25.808Z,102258.91
2023-02-06T15:08:52.487Z,102259.78
2023-02-06T15:11:23.354Z,102266.94
2023-02-06T15:13:51.911Z,102260.72
2023-02-06T15:16:18.662Z,102258.91
2023-02-06T15:18:45.401Z,102276.78
2023-02-06T15:21:14.904Z,102269.63
2023-02-06T15:23:58.139Z,102280.34
2023-02-06T15:26:34.926Z,102268.75
2023-02-06T15:29:05.085Z,102282.16
2023-02-06T15:31:32.168Z,102269.66
2023-02-06T15:34:00.671Z,102287.50
2023-02-06T15:36:31.374Z,102277.63
2023-02-06T15:38:58.647Z,102291.03
2023-02-06T15:41:35.241Z,102294.59
2023-02-06T15:44:06.732Z,102296.34
2023-02-06T15:46:33.854Z,102282.94
2023-02-06T15:49:00.537Z,102283.81
2023-02-06T15:51:29.411Z,102300.75
2023-02-06T15:54:07.978Z,102295.38
2023-02-06T15:56:39.954Z,102307.88
2023-02-06T15:59:16.255Z,102300.75
2023-02-06T16:01:43.635Z,102303.31
2023-02-06T16:04:16.780Z,102298.00
2023-02-06T16:06:43.674Z,102299.81
2023-02-06T16:09:21.323Z,102295.28
2023-02-06T16:11:52.338Z,102290.66
2023-02-06T16:14:23.273Z,102314.72
2023-02-06T16:16:58.114Z,102328.09
2023-02-06T16:19:38.027Z,102336.13
2023-02-06T16:22:05.903Z,102338.81
2023-02-06T16:24:32.561Z,102314.59
2023-02-06T16:27:15.267Z,102335.16
2023-02-06T16:29:47.294Z,102345.78
2023-02-06T16:32:17.352Z,102338.69
2023-02-06T16:34:45.334Z,102340.38
2023-02-06T16:37:14.015Z,102359.13
2023-02-06T16:39:41.677Z,102353.72
2023-02-06T16:42:13.122Z,102373.31
2023-02-06T16:44:45.419Z,102374.91
2023-02-06T16:47:17.289Z,102358.00
2023-02-06T16:49:44.975Z,102382.97
2023-02-06T16:52:18.119Z,102378.34
2023-02-06T16:54:45.540Z,102379.34
2023-02-06T16:57:20.413Z,102397.06
2023-02-06T16:59:47.133Z,102398.78
2023-02-06T17:02:14.226Z,102405.72
2023-02-06T17:04:41.385Z,102398.47
2023-02-06T17:07:13.743Z,102406.44
2023-02-06T17:09:41.501Z,102408.13
2023-02-06T17:12:13.784Z,102421.38
2023-02-06T17:14:40.747Z,102419.69
2023-02-06T17:17:09.003Z,102412.50
2023-02-06T17:19:35.683Z,102432.88
2023-02-06T17:22:02.304Z,102441.69
2023-02-06T17:24:28.955Z,102448.78
2023-02-06T17:26:55.623Z,102437.25
2023-02-06T17:29:23.605Z,102448.88
2023-02-06T17:31:50.258Z,102443.53
2023-02-06T17:34:16.914Z,102461.84
2023-02-06T17:36:43.581Z,102437.09
2023-02-06T17:39:11.992Z,102455.66
2023-02-06T17:41:38.654Z,102465.53
2023-02-06T17:44:05.453Z,102462.63
2023-02-06T17:46:33.584Z,102466.28
2023-02-06T17:49:00.226Z,102466.88
2023-02-06T17:51:26.829Z,102457.91
2023-02-06T17:53:53.526Z,102459.00
2023-02-06T17:56:20.367Z,102458.19
2023-02-06T17:58:47.089Z,102467.72
2023-02-06T18:01:15.415Z,102459.03
2023-02-06T18:03:44.585Z,102457.13
2023-02-06T18:06:12.292Z,102466.19
2023-02-06T18:08:40.276Z,102457.06
2023-02-06T18:11:08.729Z,102441.84
2023-02-06T18:13:35.364Z,102479.28
2023-02-06T18:16:02.043Z,102478.34
2023-02-06T18:18:28.806Z,102468.19
2023-02-06T18:20:56.897Z,102488.75
2023-02-06T18:23:23.642Z,102488.13
2023-02-06T18:25:50.308Z,102483.47
2023-02-06T18:28:17.243Z,102498.75
2023-02-06T18:30:44.532Z,102484.63
2023-02-06T18:33:11.822Z,102491.41
2023-02-06T18:35:39.381Z,102491.38
2023-02-06T18:38:07.519Z,102497.47
2023-02-06T18:40:34.251Z,102491.84
2023-02-06T18:43:01.029Z,102493.84
2023-02-06T18:45:27.824Z,102492.13
2023-02-06T18:47:54.470Z,102483.16
2023-02-06T18:50:23.974Z,102491.31
2023-02-06T18:52:50.673Z,102493.75
2023-02-06T18:55:19.112Z,102480.41
2023-02-06T18:57:45.867Z,102496.59
2023-02-06T19:00:14.802Z,102485.03
2023-02-06T19:02:41.841Z,102488.63
2023-02-06T19:05:08.924Z,102498.38
2023-02-06T19:07:35.681Z,102498.38
2023-02-06T19:10:05.291Z,102510.81
2023-02-06T19:12:33.188Z,102515.09
2023-02-06T19:14:59.912Z,102514.78
2023-02-06T19:17:27.970Z,102506.66
2023-02-06T19:19:54.827Z,102511.34
2023-02-06T19:22:21.837Z,102511.59
2023-02-06T19:24:48.748Z,102513.38
2023-02-06T19:27:15.363Z,102506.63
2023-02-06T19:29:43.560Z,102503.28
2023-02-06T19:32:10.358Z,102500.34
2023-02-06T19:34:39.052Z,102522.59
2023-02-06T19:37:07.811Z,102507.41
2023-02-06T19:39:35.102Z,102515.53
2023-02-06T19:42:02.212Z,102525.94
2023-02-06T19:44:28.914Z,102534.81
2023-02-06T19:46:57.570Z,102536.34
2023-02-06T19:49:25.057Z,102540.28
2023-02-06T19:51:51.978Z,102543.78
2023-02-06T19:54:19.053Z,102545.22
2023-02-06T19:56:47.294Z,102561.44
2023-02-06T19:59:15.999Z,102550.13
2023-02-06T20:01:42.645Z,102549.44
2023-02-06T20:04:21.563Z,102549.63
2023-02-06T20:06:48.602Z,102558.06
2023-02-06T20:09:16.058Z,102544.72
2023-02-06T20:11:43.004Z,102555.47
2023-02-06T20:14:09.723Z,102567.47
2023-02-06T20:16:39.909Z,102571.22
2023-02-06T20:19:07.460Z,102576.66
2023-02-06T20:21:46.602Z,102553.47
2023-02-06T20:24:15.225Z,102579.47
2023-02-06T20:26:43.070Z,102567.75
2023-02-06T20:29:16.376Z,102584.69
2023-02-06T20:31:43.235Z,102578.94
2023-02-06T20:34:09.980Z,102589.16
2023-02-06T20:36:38.514Z,102590.09
2023-02-06T20:39:05.136Z,102590.66
2023-02-06T20:41:32.681Z,102589.78
2023-02-06T20:44:00.735Z,102591.47
2023-02-06T20:46:28.721Z,102588.78
2023-02-06T20:48:57.496Z,102591.00
2023-02-06T20:51:24.951Z,102602.16
2023-02-06T20:53:53.172Z,102595.06
2023-02-06T20:56:21.344Z,102601.97
2023-02-06T20:58:48.753Z,102592.94
2023-02-06T21:01:17.699Z,102600.22
2023-02-06T21:03:45.563Z,102597.56
2023-02-06T21:06:13.014Z,102590.28
2023-02-06T21:08:40.042Z,102602.63
2023-02-06T21:11:08.671Z,102601.81
2023-02-06T21:13:35.309Z,102606.09
2023-02-06T21:16:02.472Z,102602.44
2023-02-06T21:18:31.158Z,102596.78
2023-02-06T21:21:05.033Z,102612.59
2023-02-06T21:23:31.646Z,102602.00
2023-02-06T21:25:58.338Z,102613.53
2023-02-06T21:28:26.471Z,102616.59
2023-02-06T21:30:59.795Z,102619.38
2023-02-06T21:33:26.706Z,102603.22
2023-02-06T21:35:53.823Z,102616.84
2023-02-06T21:38:20.984Z,102613.75
2023-02-06T21:40:47.777Z,102620.84
2023-02-06T21:43:14.479Z,102621.56
2023-02-06T21:45:44.204Z,102612.41
2023-02-06T21:48:10.945Z,102629.41
2023-02-06T21:50:38.609Z,102636.31
2023-02-06T21:53:05.425Z,102627.34
2023-02-06T21:55:32.453Z,102643.53
2023-02-06T21:58:06.909Z,102620.03
2023-02-06T22:00:33.772Z,102646.66
2023-02-06T22:03:02.042Z,102644.94
2023-02-06T22:05:28.892Z,102649.50
2023-02-06T22:07:55.911Z,102665.22
2023-02-06T22:10:23.035Z,102627.09
2023-02-06T22:13:17.848Z,102639.38
2023-02-06T22:19:39.430Z,102671.28
2023-02-06T22:29:34.484Z,102663.56
2023-02-06T22:35:35.426Z,102643.78
2023-02-06T22:39:03.934Z,102672.88
2023-02-06T22:52:37.617Z,102677.78
2023-02-06T22:58:32.505Z,102660.50
2023-02-06T23:01:02.191Z,102682.56
2023-02-06T23:03:29.041Z,102693.59
2023-02-06T23:05:55.815Z,102676.91
2023-02-06T23:08:24.266Z,102666.13
2023-02-06T23:10:50.909Z,102667.13
2023-02-06T23:13:17.522Z,102665.88
2023-02-06T23:15:44.139Z,102658.38
2023-02-06T23:18:10.864Z,102672.22
2023-02-06T23:20:37.968Z,102682.38
2023-02-06T23:23:05.092Z,102674.47
2023-02-06T23:25:33.112Z,102666.25
2023-02-06T23:28:00.165Z,102665.97
2023-02-06T23:30:26.884Z,102692.09
2023-02-06T23:32:53.572Z,102672.75
2023-02-06T23:35:20.187Z,102670.63
2023-02-06T23:37:46.830Z,102670.78
2023-02-06T23:40:13.462Z,102666.09
2023-02-06T23:42:41.410Z,102682.56
2023-02-06T23:45:08.413Z,102694.31
2023-02-06T23:47:35.154Z,102679.53
2023-02-06T23:50:05.575Z,102676.66
2023-02-06T23:52:32.197Z,102661.69
2023-02-06T23:54:58.841Z,102677.44
2023-02-06T23:57:25.560Z,102672.56
2023-02-06T23:59:53.827Z,102685.69
